Nearby METAR Reports

 

KICL - Clarinda, Iowa, USA
Distance from station: N 49mi, 79km
Updated: Wed, 18-Sep-2019 9:35pm CDT
Clear
Clear
 Wind from SSW
Wind: SSW 5 mph , 7 km/h
Temperature: 75°F , 24°C
Dew Point: 73°F , 23°C
Humidity: 94%
Barometer: 29.98 inHg , 1015.2 hPa
Clouds: Clear
Visibility: 10 miles , 16 km
2019/09/19 02:35 KICL 190235Z AUTO 20004KT 10SM CLR 24/23 A2998 RMK AO2
KDSM - Des Moines, Iowa, USA
Distance from station: NNE 122mi, 196km
Updated: Wed, 18-Sep-2019 8:54pm CDT
Few Clouds
Few Clouds
 Wind from SSE
Wind: SSE 8 mph , 13 km/h
Temperature: 75°F , 24°C
Dew Point: 66°F , 19°C
Humidity: 74%
Barometer: 29.95 inHg , 1014.2 hPa
Clouds: Few Clouds
Visibility: 10 miles , 16 km
Cloud details: Few Clouds 4500 ft
Few Clouds 11000 ft
Few Clouds 17000 ft
2019/09/19 01:54 KDSM 190154Z 15007KT 10SM FEW045 FEW110 FEW170 24/19 A2995 RMK AO2 SLP136 T02440194
KFNB - Falls City, Nebraska, USA
Distance from station: W 50mi, 80km
Updated: Wed, 18-Sep-2019 8:53pm CDT
Clear
Clear
 Wind from SSE
Wind: SSE 6 mph , 9 km/h
Temperature: 79°F , 26°C
Dew Point: 70°F , 21°C
Humidity: 74%
Barometer: 29.95 inHg , 1014.2 hPa
Clouds: Clear
Visibility: 10 miles , 16 km
2019/09/19 01:53 KFNB 190153Z AUTO 16005KT 10SM CLR 26/21 A2995 RMK AO2 SLP132 T02610211
 
KMCI - Kansas City, Missouri, USA
Distance from station: S 65mi, 104km
Updated: Wed, 18-Sep-2019 8:53pm CDT
Clear
Clear
 Wind from SSE
Wind: SSE 7 mph , 11 km/h
Temperature: 75°F , 24°C
Dew Point: 68°F , 20°C
Humidity: 78%
Barometer: 29.99 inHg , 1015.6 hPa
Clouds: Clear
Visibility: 10 miles , 16 km
2019/09/19 01:53 KMCI 190153Z 15006KT 10SM CLR 24/20 A2999 RMK AO2 SLP143 T02390200
KOMA - Omaha, Nebraska, USA
Distance from station: NNW 105mi, 169km
Updated: Wed, 18-Sep-2019 8:52pm CDT
Mostly cloudy
Mostly cloudy
 Wind from SSE
Wind: SSE 13 mph , 20 km/h
Temperature: 82°F , 28°C
Heat Index: 86°F , 30°C
Dew Point: 72°F , 22°C
Humidity: 70%
Barometer: 29.92 inHg , 1013.2 hPa
Clouds: Mostly cloudy
Visibility: 10 miles , 16 km
Cloud details: Partly cloudy 5000 ft
Mostly cloudy 12000 ft
Mostly cloudy 25000 ft
2019/09/19 01:52 KOMA 190152Z 15011KT 10SM SCT050 BKN120 BKN250 28/22 A2992 RMK AO2 SLP121 FRQ LTGIC DSNT NW CB DSNT NW MOV NE CB DSNT SW DSIPT T02780217
KRDK - Red Oak, Iowa, USA
Distance from station: N 70mi, 112km
Updated: Wed, 18-Sep-2019 9:35pm CDT
Mostly cloudy
Mostly cloudy
 Wind from SSE
Wind: SSE 5 mph , 7 km/h
Temperature: 77°F , 25°C
Dew Point: 72°F , 22°C
Humidity: 83%
Barometer: 29.96 inHg , 1014.6 hPa
Clouds: Mostly cloudy
Visibility: 10 miles , 16 km
Cloud details: Few Clouds 6000 ft
Partly cloudy 9000 ft
Mostly cloudy 14000 ft
2019/09/19 02:35 KRDK 190235Z AUTO 15004KT 10SM FEW060 SCT090 BKN140 25/22 A2996 RMK AO2
 
KSTJ - Saint Joseph, Missouri, USA
Distance from station: SW 23mi, 37km
Updated: Wed, 18-Sep-2019 8:53pm CDT
Clear
Clear
 Wind from S
Wind: S 6 mph , 9 km/h
Temperature: 79°F , 26°C
Dew Point: 70°F , 21°C
Humidity: 74%
Barometer: 29.97 inHg , 1014.9 hPa
Clouds: Clear
Visibility: 10 miles , 16 km
2019/09/19 01:53 KSTJ 190153Z AUTO 17005KT 10SM CLR 26/21 A2997 RMK AO2 SLP139 T02610211
KTOP - Topeka, Kansas, USA
Distance from station: SW 85mi, 137km
Updated: Wed, 18-Sep-2019 8:53pm CDT
Clear
Clear
 Wind from calm
Wind: Calm
Temperature: 79°F , 26°C
Dew Point: 70°F , 21°C
Humidity: 74%
Barometer: 29.96 inHg , 1014.6 hPa
Clouds: Clear
Visibility: 10 miles , 16 km
2019/09/19 01:53 KTOP 190153Z AUTO 00000KT 10SM CLR 26/21 A2996 RMK AO2 SLP136 T02560206
KICT - Wichita, Kansas, USA
Distance from station: SW 215mi, 346km
Updated: Wed, 18-Sep-2019 8:53pm CDT
Few Clouds
Few Clouds
 Wind from SSE
Wind: SSE 12 mph , 19 km/h
Temperature: 81°F , 27°C
Heat Index: 83°F , 28°C
Dew Point: 66°F , 19°C
Humidity: 62%
Barometer: 29.95 inHg , 1014.2 hPa
Clouds: Few Clouds
Visibility: 10 miles , 16 km
Cloud details: Few Clouds 20000 ft
2019/09/19 01:53 KICT 190153Z 15010KT 10SM FEW200 27/19 A2995 RMK AO2 SLP127 T02720194